WFL611P EPPO-EPKT
Flight info
| Callsign | WFL611P |
|---|---|
| Flight time | N/A |
| Altitude | 19000 |
| Route | XIDNA DCT NUDRO DCT MOFKE |
| Aircraft | A333/H-SDE1E2E3FGHIJ4J5M1P2RWXYZ/LB1D1 |
Departure
| Time | 2026-04-22 17:52 |
|---|---|
| Airport | Poznań-Ławica Airport (EPPO) |
Arrival
| Time | N/A |
|---|---|
| Airport | Katowice Wojciech Korfanty International Airport (EPKT) |
| Time | Latitude | Longitude | Altitude | Speed | Heading |
|---|---|---|---|---|---|
| 2026-04-22 17:41 | 52.41586 | 16.82824 | 292 ft | 0 kts | 193° |
| 2026-04-22 17:44 | 52.41616 | 16.82833 | 293 ft | 3 kts | 187° |
| 2026-04-22 17:44 | 52.41636 | 16.82837 | 297 ft | 3 kts | 188° |
| 2026-04-22 17:44 | 52.41650 | 16.82841 | 296 ft | 2 kts | 192° |
| 2026-04-22 17:44 | 52.41668 | 16.82846 | 297 ft | 3 kts | 175° |
| 2026-04-22 17:45 | 52.41684 | 16.82840 | 297 ft | 3 kts | 128° |
| 2026-04-22 17:45 | 52.41688 | 16.82817 | 297 ft | 3 kts | 76° |
| 2026-04-22 17:45 | 52.41682 | 16.82785 | 297 ft | 3 kts | 66° |
| 2026-04-22 17:45 | 52.41674 | 16.82755 | 297 ft | 3 kts | 72° |
| 2026-04-22 17:46 | 52.41670 | 16.82729 | 297 ft | 1 kts | 91° |
| 2026-04-22 17:46 | 52.41670 | 16.82726 | 297 ft | 4 kts | 93° |
| 2026-04-22 17:48 | 52.41670 | 16.82731 | 297 ft | 2 kts | 93° |
| 2026-04-22 17:48 | 52.41671 | 16.82776 | 297 ft | 5 kts | 81° |
| 2026-04-22 17:48 | 52.41701 | 16.82828 | 297 ft | 8 kts | 26° |
| 2026-04-22 17:48 | 52.41762 | 16.82868 | 295 ft | 11 kts | 19° |
| 2026-04-22 17:49 | 52.41845 | 16.82924 | 297 ft | 13 kts | 38° |
| 2026-04-22 17:49 | 52.41847 | 16.83062 | 293 ft | 14 kts | 105° |
| 2026-04-22 17:49 | 52.41816 | 16.83228 | 294 ft | 17 kts | 107° |
| 2026-04-22 17:49 | 52.41781 | 16.83429 | 297 ft | 20 kts | 111° |
| 2026-04-22 17:50 | 52.41735 | 16.83649 | 296 ft | 19 kts | 108° |
| 2026-04-22 17:50 | 52.41706 | 16.83799 | 296 ft | 8 kts | 106° |
| 2026-04-22 17:50 | 52.41690 | 16.83899 | 293 ft | 11 kts | 105° |
| 2026-04-22 17:50 | 52.41702 | 16.84009 | 295 ft | 11 kts | 38° |
| 2026-04-22 17:51 | 52.41779 | 16.84065 | 296 ft | 13 kts | 20° |
| 2026-04-22 17:51 | 52.41826 | 16.84031 | 298 ft | 13 kts | 301° |
| 2026-04-22 17:51 | 52.41926 | 16.83556 | 298 ft | 81 kts | 285° |
| 2026-04-22 17:51 | 52.42161 | 16.82308 | 416 ft | 139 kts | 288° |
| 2026-04-22 17:52 | 52.42440 | 16.80746 | 1292 ft | 146 kts | 290° |
| 2026-04-22 17:52 | 52.42752 | 16.79134 | 2279 ft | 156 kts | 291° |
| 2026-04-22 17:52 | 52.43113 | 16.77277 | 2885 ft | 187 kts | 291° |
| 2026-04-22 17:52 | 52.43540 | 16.75049 | 3436 ft | 219 kts | 290° |
| 2026-04-22 17:53 | 52.43958 | 16.72545 | 4320 ft | 236 kts | 283° |
| 2026-04-22 17:53 | 52.43955 | 16.69764 | 5338 ft | 253 kts | 263° |
| 2026-04-22 17:53 | 52.43179 | 16.67085 | 6426 ft | 272 kts | 232° |
| 2026-04-22 17:54 | 52.35701 | 16.67473 | 10529 ft | 314 kts | 158° |
| 2026-04-22 17:54 | 52.33549 | 16.68693 | 11028 ft | 341 kts | 159° |
| 2026-04-22 17:55 | 52.31207 | 16.69951 | 11430 ft | 366 kts | 160° |
| 2026-04-22 17:55 | 52.28732 | 16.71227 | 12206 ft | 377 kts | 160° |
| 2026-04-22 17:55 | 52.26197 | 16.72505 | 13196 ft | 383 kts | 160° |
| 2026-04-22 17:55 | 52.23629 | 16.73785 | 14146 ft | 388 kts | 160° |
| 2026-04-22 17:56 | 52.21026 | 16.75074 | 15048 ft | 393 kts | 160° |
| 2026-04-22 17:56 | 52.20138 | 16.75512 | 15356 ft | 395 kts | 160° |
| 2026-04-22 17:56 | 52.12948 | 16.79051 | 17718 ft | 407 kts | 159° |
| 2026-04-22 17:57 | 52.10256 | 16.80371 | 18524 ft | 411 kts | 159° |
| 2026-04-22 17:57 | 52.07513 | 16.81715 | 18979 ft | 413 kts | 159° |
| 2026-04-22 17:57 | 52.04741 | 16.83072 | 19139 ft | 421 kts | 159° |
| 2026-04-22 17:57 | 52.01893 | 16.84466 | 19153 ft | 432 kts | 159° |
| 2026-04-22 17:58 | 51.99003 | 16.85873 | 19159 ft | 434 kts | 160° |
| 2026-04-22 17:58 | 51.96113 | 16.87252 | 19158 ft | 434 kts | 160° |
| 2026-04-22 17:58 | 51.93211 | 16.88635 | 19160 ft | 434 kts | 160° |
| 2026-04-22 17:58 | 51.90312 | 16.90026 | 19159 ft | 434 kts | 160° |
| 2026-04-22 17:59 | 51.87413 | 16.91422 | 19159 ft | 434 kts | 160° |
| 2026-04-22 17:59 | 51.84523 | 16.92816 | 19159 ft | 434 kts | 160° |
| 2026-04-22 17:59 | 51.81623 | 16.94217 | 19162 ft | 434 kts | 160° |
| 2026-04-22 17:59 | 51.78731 | 16.95613 | 19157 ft | 434 kts | 160° |
| 2026-04-22 18:00 | 51.76811 | 16.96538 | 19156 ft | 434 kts | 159° |
| 2026-04-22 18:00 | 51.72989 | 16.98377 | 19160 ft | 432 kts | 159° |
| 2026-04-22 18:00 | 51.70102 | 16.99785 | 19162 ft | 431 kts | 158° |
| 2026-04-22 18:00 | 51.67274 | 17.01363 | 19162 ft | 430 kts | 156° |
| 2026-04-22 18:01 | 51.64485 | 17.03075 | 19164 ft | 429 kts | 154° |
| 2026-04-22 18:01 | 51.61709 | 17.04844 | 19154 ft | 429 kts | 154° |
| 2026-04-22 18:01 | 51.60767 | 17.05449 | 19157 ft | 429 kts | 154° |
| 2026-04-22 18:02 | 51.53298 | 17.10194 | 19163 ft | 430 kts | 154° |
| 2026-04-22 18:02 | 51.50501 | 17.11936 | 19172 ft | 431 kts | 154° |
| 2026-04-22 18:02 | 51.47700 | 17.13666 | 19163 ft | 431 kts | 154° |
| 2026-04-22 18:02 | 51.44897 | 17.15389 | 19157 ft | 431 kts | 154° |
| 2026-04-22 18:03 | 51.42133 | 17.17082 | 19155 ft | 430 kts | 154° |
| 2026-04-22 18:03 | 51.39393 | 17.18749 | 19172 ft | 408 kts | 154° |
| 2026-04-22 18:03 | 51.36806 | 17.20310 | 19177 ft | 387 kts | 154° |
| 2026-04-22 18:03 | 51.34303 | 17.21822 | 19171 ft | 382 kts | 154° |
| 2026-04-22 18:04 | 51.31820 | 17.23334 | 19168 ft | 382 kts | 154° |
| 2026-04-22 18:04 | 51.29331 | 17.24856 | 19162 ft | 383 kts | 154° |
| 2026-04-22 18:04 | 51.26845 | 17.26376 | 19167 ft | 383 kts | 154° |
| 2026-04-22 18:04 | 51.24352 | 17.27898 | 19168 ft | 383 kts | 154° |
| 2026-04-22 18:05 | 51.21892 | 17.29396 | 19170 ft | 383 kts | 154° |
| 2026-04-22 18:05 | 51.19402 | 17.30909 | 19168 ft | 382 kts | 154° |
| 2026-04-22 18:06 | 51.18564 | 17.31439 | 19168 ft | 381 kts | 152° |
| 2026-04-22 18:06 | 51.08295 | 17.42522 | 19164 ft | 374 kts | 141° |
| 2026-04-22 18:06 | 51.05917 | 17.44317 | 19166 ft | 384 kts | 159° |
| 2026-04-22 18:07 | 51.04130 | 17.44832 | 19166 ft | 390 kts | 172° |
| 2026-04-22 18:07 | 51.01433 | 17.44610 | 19160 ft | 396 kts | 184° |
| 2026-04-22 18:07 | 50.98692 | 17.43964 | 19159 ft | 397 kts | 185° |
| 2026-04-22 18:07 | 50.95960 | 17.43281 | 19166 ft | 397 kts | 185° |
| 2026-04-22 18:08 | 50.93230 | 17.42593 | 19171 ft | 397 kts | 185° |
| 2026-04-22 18:08 | 50.90500 | 17.41903 | 19168 ft | 397 kts | 185° |
| 2026-04-22 18:08 | 50.87772 | 17.41215 | 19177 ft | 397 kts | 185° |
| 2026-04-22 18:08 | 50.85037 | 17.40525 | 19173 ft | 397 kts | 185° |
| 2026-04-22 18:09 | 50.73676 | 17.37670 | 19184 ft | 397 kts | 185° |
| 2026-04-22 18:10 | 50.70943 | 17.36987 | 19173 ft | 396 kts | 185° |
| 2026-04-22 18:10 | 50.68221 | 17.36308 | 19188 ft | 396 kts | 185° |
| 2026-04-22 18:10 | 50.65495 | 17.35630 | 19182 ft | 396 kts | 185° |
| 2026-04-22 18:10 | 50.62766 | 17.35274 | 19182 ft | 391 kts | 174° |
| 2026-04-22 18:11 | 50.60108 | 17.35916 | 19181 ft | 382 kts | 157° |
| 2026-04-22 18:11 | 50.57776 | 17.37752 | 19186 ft | 370 kts | 137° |
| 2026-04-22 18:11 | 50.56055 | 17.40625 | 19184 ft | 357 kts | 117° |
| 2026-04-22 18:11 | 50.55107 | 17.44142 | 19187 ft | 345 kts | 97° |
| 2026-04-22 18:12 | 50.54948 | 17.47862 | 19198 ft | 345 kts | 83° |
| 2026-04-22 18:12 | 50.55185 | 17.51761 | 19171 ft | 371 kts | 80° |
| 2026-04-22 18:12 | 50.55389 | 17.54462 | 19166 ft | 381 kts | 80° |
| 2026-04-22 18:12 | 50.55798 | 17.60066 | 19179 ft | 386 kts | 80° |
| 2026-04-22 18:13 | 50.56092 | 17.64214 | 19178 ft | 386 kts | 80° |
| 2026-04-22 18:13 | 50.56388 | 17.68413 | 19177 ft | 386 kts | 80° |
| 2026-04-22 18:13 | 50.56684 | 17.72614 | 19180 ft | 386 kts | 80° |
| 2026-04-22 18:13 | 50.56979 | 17.76810 | 19174 ft | 386 kts | 80° |
| 2026-04-22 18:14 | 50.57078 | 17.78228 | 19175 ft | 386 kts | 80° |
| 2026-04-22 18:14 | 50.57468 | 17.83801 | 19175 ft | 386 kts | 81° |
| 2026-04-22 18:14 | 50.57761 | 17.88011 | 19176 ft | 386 kts | 81° |
| 2026-04-22 18:15 | 50.58619 | 18.05460 | 19173 ft | 390 kts | 88° |
| 2026-04-22 18:15 | 50.58505 | 18.09740 | 19170 ft | 391 kts | 89° |
| 2026-04-22 18:16 | 50.58374 | 18.14012 | 19170 ft | 391 kts | 89° |
| 2026-04-22 18:16 | 50.58242 | 18.18279 | 19167 ft | 391 kts | 89° |
| 2026-04-22 18:16 | 50.58110 | 18.22559 | 19167 ft | 391 kts | 89° |
| 2026-04-22 18:16 | 50.57978 | 18.26832 | 19168 ft | 391 kts | 89° |
| 2026-04-22 18:17 | 50.57890 | 18.29668 | 19088 ft | 388 kts | 89° |